createdAt,value
2019-05-11T00:01:56.607Z,11.30
2019-05-11T00:04:26.504Z,10.70
2019-05-11T00:06:56.451Z,10.85
2019-05-11T00:09:26.331Z,11.17
2019-05-11T00:11:56.268Z,11.38
2019-05-11T00:14:26.255Z,11.38
2019-05-11T00:16:57.585Z,11.45
2019-05-11T00:19:27.224Z,11.10
2019-05-11T00:21:56.933Z,10.90
2019-05-11T00:24:29.410Z,11.12
2019-05-11T00:26:58.205Z,10.72
2019-05-11T00:29:28.130Z,10.53
2019-05-11T00:31:58.083Z,10.93
2019-05-11T00:34:27.938Z,10.82
2019-05-11T00:36:57.847Z,10.00
2019-05-11T00:39:27.785Z,9.45
2019-05-11T00:41:57.683Z,10.00
2019-05-11T00:44:27.598Z,7.50
2019-05-11T00:46:57.488Z,9.37
2019-05-11T00:49:27.033Z,9.65
2019-05-11T00:51:56.935Z,9.98
2019-05-11T00:54:26.464Z,9.55
2019-05-11T00:56:56.352Z,10.15
2019-05-11T00:59:25.891Z,10.88
2019-05-11T01:01:55.765Z,10.75
2019-05-11T01:04:25.319Z,12.23
2019-05-11T01:06:55.212Z,12.13
2019-05-11T01:09:25.198Z,13.47
2019-05-11T01:11:55.010Z,12.27
2019-05-11T01:14:24.571Z,10.72
2019-05-11T01:16:54.445Z,10.50
2019-05-11T01:19:25.175Z,10.80
2019-05-11T01:21:54.725Z,10.53
2019-05-11T01:24:24.612Z,11.35
2019-05-11T01:26:54.140Z,11.35
2019-05-11T01:29:24.128Z,11.80
2019-05-11T01:31:54.023Z,11.83
2019-05-11T01:34:23.972Z,11.73
2019-05-11T01:36:53.812Z,11.10
2019-05-11T01:39:23.805Z,11.65
2019-05-11T01:41:53.709Z,12.27
2019-05-11T01:44:23.647Z,12.50
2019-05-11T01:46:53.510Z,12.73
2019-05-11T01:49:23.512Z,11.88
2019-05-11T01:51:53.512Z,13.40
2019-05-11T01:54:23.585Z,12.23
2019-05-11T01:56:54.449Z,12.60
2019-05-11T02:01:53.034Z,11.15
2019-05-11T02:04:22.940Z,12.30
2019-05-11T02:06:52.850Z,12.60
2019-05-11T02:09:22.770Z,12.33
2019-05-11T02:11:52.713Z,12.58
2019-05-11T02:14:22.577Z,13.83
2019-05-11T02:16:52.476Z,12.58
2019-05-11T02:19:22.426Z,13.83
2019-05-11T02:21:52.372Z,13.77
2019-05-11T02:24:22.287Z,13.18
2019-05-11T02:26:52.132Z,14.05
2019-05-11T02:29:22.094Z,13.08
2019-05-11T02:31:52.031Z,13.17
2019-05-11T02:34:21.899Z,13.60
2019-05-11T02:36:51.801Z,14.15
2019-05-11T02:39:22.525Z,14.50
2019-05-11T02:41:52.066Z,13.53
2019-05-11T02:44:21.945Z,15.00
2019-05-11T02:46:51.509Z,14.75
2019-05-11T02:49:21.374Z,14.70
2019-05-11T02:51:51.489Z,14.00
2019-05-11T02:54:21.579Z,14.13
2019-05-11T02:56:51.199Z,14.73
2019-05-11T02:59:21.068Z,13.43
2019-05-11T03:02:09.985Z,14.23
2019-05-11T03:04:40.517Z,14.23
2019-05-11T03:07:10.054Z,12.90
2019-05-11T03:09:40.001Z,14.00
2019-05-11T03:12:09.847Z,13.93
2019-05-11T03:14:39.393Z,13.53
2019-05-11T03:17:16.597Z,13.48
2019-05-11T03:19:46.150Z,13.65
2019-05-11T03:22:15.867Z,14.15
2019-05-11T03:24:45.665Z,12.90
2019-05-11T03:27:15.588Z,13.50
2019-05-11T03:29:45.509Z,13.30
2019-05-11T03:32:15.441Z,12.83
2019-05-11T03:34:46.149Z,13.43
2019-05-11T03:37:16.084Z,11.18
2019-05-11T03:39:45.980Z,11.47
2019-05-11T03:42:15.898Z,11.18
2019-05-11T03:44:45.790Z,10.70
2019-05-11T03:47:15.738Z,12.13
2019-05-11T03:49:45.637Z,10.68
2019-05-11T03:52:15.566Z,11.43
2019-05-11T03:54:45.630Z,10.95
2019-05-11T03:57:15.389Z,12.37
2019-05-11T03:59:45.290Z,12.68
2019-05-11T04:02:15.213Z,14.55
2019-05-11T04:04:45.121Z,14.75
2019-05-11T04:07:15.533Z,14.10
2019-05-11T04:09:45.376Z,15.05
2019-05-11T04:12:33.432Z,14.65
2019-05-11T04:14:46.890Z,15.88
2019-05-11T04:17:16.798Z,16.50
2019-05-11T04:19:46.659Z,16.90
2019-05-11T04:22:16.566Z,16.32
2019-05-11T04:24:46.362Z,15.15
2019-05-11T04:27:19.533Z,16.90
2019-05-11T04:29:47.522Z,16.55
2019-05-11T04:32:17.069Z,15.90
2019-05-11T04:34:46.948Z,17.82
2019-05-11T04:37:16.533Z,19.15
2019-05-11T04:39:46.373Z,19.23
2019-05-11T04:42:15.933Z,19.65
2019-05-11T04:44:45.830Z,21.02
2019-05-11T04:47:15.726Z,22.37
2019-05-11T04:49:45.626Z,22.45
2019-05-11T04:52:15.170Z,16.23
2019-05-11T04:54:45.049Z,23.65
2019-05-11T04:57:14.599Z,24.30
2019-05-11T04:59:44.496Z,22.95
2019-05-11T05:02:14.388Z,23.13
2019-05-11T05:04:44.075Z,23.20
2019-05-11T05:07:16.498Z,24.82
2019-05-11T05:09:45.400Z,23.50
2019-05-11T05:12:15.720Z,25.43
2019-05-11T05:14:45.609Z,25.48
2019-05-11T05:17:15.497Z,25.08
2019-05-11T05:19:45.059Z,24.63
2019-05-11T05:22:15.027Z,25.82
2019-05-11T05:24:45.078Z,26.27
2019-05-11T05:27:14.862Z,27.00
2019-05-11T05:29:44.776Z,27.17
2019-05-11T05:32:14.697Z,28.05
2019-05-11T05:34:44.708Z,28.75
2019-05-11T05:37:14.517Z,29.30
2019-05-11T05:39:44.436Z,30.52
2019-05-11T05:42:14.353Z,30.57
2019-05-11T05:44:44.304Z,32.73
2019-05-11T05:47:14.165Z,35.50
2019-05-11T05:49:44.100Z,36.73
2019-05-11T05:52:14.003Z,36.57
2019-05-11T05:54:43.924Z,37.80
2019-05-11T05:57:13.821Z,39.73
2019-05-11T05:59:43.752Z,39.48
2019-05-11T06:02:13.654Z,39.77
2019-05-11T06:04:43.633Z,39.58
2019-05-11T06:07:13.480Z,40.43
2019-05-11T06:09:44.265Z,41.23
2019-05-11T06:12:14.129Z,42.20
2019-05-11T06:14:44.053Z,42.58
2019-05-11T06:17:13.958Z,41.77
2019-05-11T06:19:43.889Z,42.05
2019-05-11T06:22:13.796Z,41.97
2019-05-11T06:24:43.795Z,38.35
2019-05-11T06:27:13.628Z,41.60
2019-05-11T06:29:44.573Z,41.88
2019-05-11T06:34:42.965Z,37.60
2019-05-11T06:37:14.857Z,37.25
2019-05-11T06:39:44.845Z,36.05
2019-05-11T06:42:14.756Z,36.87
2019-05-11T06:44:44.850Z,37.15
2019-05-11T06:47:14.572Z,36.70
2019-05-11T06:49:44.112Z,36.40
2019-05-11T06:52:14.156Z,34.58
2019-05-11T06:54:43.932Z,35.13
2019-05-11T06:57:13.832Z,37.58
2019-05-11T06:59:44.831Z,35.75
2019-05-11T07:04:43.238Z,36.33
2019-05-11T07:07:46.521Z,35.45
2019-05-11T07:10:05.696Z,38.23
2019-05-11T07:12:35.420Z,36.20
2019-05-11T07:15:06.339Z,35.73
2019-05-11T07:20:07.111Z,34.55
2019-05-11T07:22:36.970Z,37.03
2019-05-11T07:25:08.001Z,25.45
2019-05-11T07:27:38.052Z,33.78
2019-05-11T07:30:08.734Z,32.93
2019-05-11T07:32:44.713Z,35.17
2019-05-11T07:35:15.428Z,34.45
2019-05-11T07:37:47.896Z,34.50
2019-05-11T07:40:18.755Z,34.78
2019-05-11T07:42:48.866Z,35.15
2019-05-11T07:45:18.924Z,36.03
2019-05-11T07:47:48.785Z,34.90
2019-05-11T07:50:18.754Z,37.55
2019-05-11T07:52:48.546Z,35.60
2019-05-11T07:55:19.208Z,34.73
2019-05-11T07:57:49.173Z,36.83
2019-05-11T08:00:19.550Z,36.77
2019-05-11T08:02:49.410Z,37.38
2019-05-11T08:05:19.391Z,37.25
2019-05-11T08:07:49.240Z,36.67
2019-05-11T08:10:19.542Z,36.65
2019-05-11T08:12:49.524Z,36.83
2019-05-11T08:15:19.662Z,38.27
2019-05-11T08:17:49.308Z,36.38
2019-05-11T08:20:19.188Z,38.65
2019-05-11T08:22:49.141Z,35.90
2019-05-11T08:25:19.100Z,37.53
2019-05-11T08:27:48.944Z,39.10
2019-05-11T08:30:19.386Z,37.60
2019-05-11T08:32:49.539Z,42.38
2019-05-11T08:35:19.672Z,40.03
2019-05-11T08:37:49.449Z,38.40
2019-05-11T08:40:19.864Z,37.48
2019-05-11T08:42:49.746Z,34.43
2019-05-11T08:45:24.250Z,36.43
2019-05-11T08:47:51.136Z,37.33
2019-05-11T08:50:21.043Z,38.57
2019-05-11T08:52:50.587Z,36.35
2019-05-11T08:55:20.456Z,39.33
2019-05-11T08:57:50.021Z,39.80
2019-05-11T09:00:20.211Z,38.65
2019-05-11T09:02:50.960Z,37.25
2019-05-11T09:05:20.932Z,35.45
2019-05-11T09:07:50.550Z,35.48
2019-05-11T09:10:20.171Z,33.18
2019-05-11T09:12:49.868Z,30.57
2019-05-11T09:15:33.452Z,29.18
2019-05-11T09:17:52.697Z,25.45
2019-05-11T09:20:22.564Z,26.20
2019-05-11T09:22:52.484Z,28.07
2019-05-11T09:25:22.428Z,29.00
2019-05-11T09:27:52.317Z,26.57
2019-05-11T09:30:22.320Z,23.12
2019-05-11T09:32:52.144Z,22.90
2019-05-11T09:35:24.217Z,23.85
2019-05-11T09:37:54.192Z,23.22
2019-05-11T09:40:23.980Z,24.40
2019-05-11T09:42:53.943Z,23.13
2019-05-11T09:45:23.861Z,24.07
2019-05-11T09:47:53.681Z,21.37
2019-05-11T09:50:23.659Z,22.00
2019-05-11T09:52:53.542Z,23.57
2019-05-11T09:55:23.569Z,23.85
2019-05-11T09:57:54.198Z,23.50
2019-05-11T10:00:25.469Z,23.57
2019-05-11T10:02:57.553Z,22.25
2019-05-11T10:05:28.612Z,22.52
2019-05-11T10:07:59.024Z,21.27
2019-05-11T10:10:29.120Z,22.40
2019-05-11T10:12:59.235Z,19.00
2019-05-11T10:15:30.199Z,18.77
2019-05-11T10:18:00.022Z,17.70
2019-05-11T10:20:29.949Z,18.75
2019-05-11T10:22:59.857Z,21.53
2019-05-11T10:25:29.782Z,19.57
2019-05-11T10:27:59.689Z,19.37
2019-05-11T10:30:29.607Z,18.15
2019-05-11T10:32:59.509Z,18.57
2019-05-11T10:35:29.433Z,16.60
2019-05-11T10:37:59.384Z,17.23
2019-05-11T10:40:29.276Z,17.63
2019-05-11T10:42:59.217Z,16.97
2019-05-11T10:45:29.097Z,16.37
2019-05-11T10:48:01.090Z,15.97
2019-05-11T10:50:30.562Z,15.25
2019-05-11T10:53:00.524Z,15.70
2019-05-11T10:55:30.396Z,16.40
2019-05-11T10:58:00.293Z,14.93
2019-05-11T11:00:29.904Z,14.60
2019-05-11T11:02:59.733Z,14.83
2019-05-11T11:05:29.649Z,14.28
2019-05-11T11:07:59.188Z,12.87
2019-05-11T11:10:29.122Z,13.43
2019-05-11T11:12:59.137Z,14.13
2019-05-11T11:15:29.029Z,13.35
2019-05-11T11:17:58.900Z,11.83
2019-05-11T11:20:28.774Z,10.25
2019-05-11T11:22:58.643Z,10.70
2019-05-11T11:25:28.625Z,10.20
2019-05-11T11:27:58.636Z,11.12
2019-05-11T11:30:28.736Z,9.93
2019-05-11T11:32:58.974Z,10.78
2019-05-11T11:35:28.716Z,10.28
2019-05-11T11:37:58.654Z,9.63
2019-05-11T11:40:29.770Z,9.13
2019-05-11T11:42:59.693Z,8.73
2019-05-11T11:45:29.610Z,8.27
2019-05-11T11:47:59.517Z,6.80
2019-05-11T11:50:29.436Z,6.37
2019-05-11T11:52:59.357Z,6.23
2019-05-11T11:55:29.254Z,6.00
2019-05-11T11:57:59.180Z,7.23
2019-05-11T12:00:29.151Z,7.37
2019-05-11T12:02:59.004Z,8.05
2019-05-11T12:05:28.905Z,7.97
2019-05-11T12:07:58.848Z,7.53
2019-05-11T12:10:28.897Z,8.80
2019-05-11T12:12:58.627Z,7.47
2019-05-11T12:15:28.434Z,8.08
2019-05-11T12:17:58.777Z,7.45
2019-05-11T12:20:28.895Z,7.70
2019-05-11T12:22:58.788Z,7.30
2019-05-11T12:25:28.650Z,7.58
2019-05-11T12:27:58.577Z,8.53
2019-05-11T12:30:28.643Z,8.30
2019-05-11T12:32:58.402Z,7.70
2019-05-11T12:35:28.587Z,7.20
2019-05-11T12:37:58.774Z,6.45
2019-05-11T12:40:28.539Z,6.90
2019-05-11T12:42:59.186Z,6.65
2019-05-11T12:45:29.590Z,6.47
2019-05-11T12:47:59.518Z,6.65
2019-05-11T12:50:29.417Z,6.72
2019-05-11T12:52:59.009Z,6.20
2019-05-11T12:55:28.890Z,6.47
2019-05-11T12:57:58.854Z,5.70
2019-05-11T13:00:31.283Z,6.37
2019-05-11T13:03:00.237Z,6.87
2019-05-11T13:05:30.130Z,6.43
2019-05-11T13:07:59.664Z,6.40
2019-05-11T13:10:29.615Z,6.40
2019-05-11T13:13:02.558Z,5.83
2019-05-11T13:15:31.257Z,6.10
2019-05-11T13:18:00.947Z,5.08
2019-05-11T13:20:30.862Z,4.62
2019-05-11T13:23:00.381Z,5.00
2019-05-11T13:25:29.934Z,5.60
2019-05-11T13:27:59.765Z,5.60
2019-05-11T13:30:29.393Z,6.45
2019-05-11T13:32:59.289Z,7.22
2019-05-11T13:35:29.220Z,7.45
2019-05-11T13:37:59.141Z,8.07
2019-05-11T13:40:29.870Z,6.60
2019-05-11T13:42:59.762Z,8.45
2019-05-11T13:45:29.715Z,7.75
2019-05-11T13:47:59.604Z,5.47
2019-05-11T13:50:29.827Z,4.77
2019-05-11T13:52:59.837Z,5.45
2019-05-11T13:55:29.788Z,5.42
2019-05-11T14:00:34.452Z,6.42
2019-05-11T14:03:07.685Z,8.05
2019-05-11T14:05:37.831Z,6.25
2019-05-11T14:08:08.327Z,6.55
2019-05-11T14:10:38.531Z,6.17
2019-05-11T14:13:08.858Z,5.90
2019-05-11T14:15:38.908Z,5.90
2019-05-11T14:18:11.905Z,6.30
2019-05-11T14:20:40.471Z,6.95
2019-05-11T14:23:10.285Z,7.30
2019-05-11T14:25:40.206Z,7.67
2019-05-11T14:28:10.109Z,6.87
2019-05-11T14:30:40.041Z,7.40
2019-05-11T14:33:09.941Z,8.60
2019-05-11T14:35:39.873Z,7.80
2019-05-11T14:38:09.769Z,7.60
2019-05-11T14:40:39.689Z,7.97
2019-05-11T14:43:09.588Z,5.90
2019-05-11T14:45:39.124Z,6.57
2019-05-11T14:48:23.073Z,6.17
2019-05-11T14:50:40.576Z,7.30
2019-05-11T14:53:10.105Z,8.20
2019-05-11T14:55:39.992Z,7.47
2019-05-11T14:58:09.525Z,8.00
2019-05-11T15:00:39.501Z,8.33
2019-05-11T15:03:09.317Z,7.63
2019-05-11T15:05:41.370Z,8.48
2019-05-11T15:08:10.389Z,9.28
2019-05-11T15:10:39.911Z,9.15
2019-05-11T15:13:09.829Z,8.65
2019-05-11T15:15:39.717Z,9.07
2019-05-11T15:18:09.263Z,9.07
2019-05-11T15:20:39.217Z,9.23
2019-05-11T15:23:09.067Z,9.55
2019-05-11T15:25:38.969Z,9.40
2019-05-11T15:28:08.860Z,9.90
2019-05-11T15:30:38.884Z,9.80
2019-05-11T15:33:08.857Z,8.15
2019-05-11T15:35:38.721Z,10.27
2019-05-11T15:38:08.894Z,10.32
2019-05-11T15:40:38.969Z,9.78
2019-05-11T15:43:08.926Z,8.73
2019-05-11T15:45:38.796Z,7.13
2019-05-11T15:48:08.817Z,6.30
2019-05-11T15:50:40.167Z,7.42
2019-05-11T15:53:10.200Z,7.95
2019-05-11T15:55:42.423Z,5.75
2019-05-11T15:58:11.660Z,5.15
2019-05-11T16:00:41.252Z,3.77
2019-05-11T16:03:12.970Z,4.22
2019-05-11T16:05:42.946Z,3.52
2019-05-11T16:08:12.747Z,4.67
2019-05-11T16:10:42.556Z,4.22
2019-05-11T16:13:12.373Z,3.80
2019-05-11T16:15:42.333Z,4.42
2019-05-11T16:18:12.217Z,3.27
2019-05-11T16:20:42.408Z,3.65
2019-05-11T16:23:12.040Z,3.87
2019-05-11T16:25:42.018Z,3.40
2019-05-11T16:28:11.905Z,3.52
2019-05-11T16:30:41.848Z,3.23
2019-05-11T16:33:11.705Z,4.27
2019-05-11T16:35:41.573Z,3.67
2019-05-11T16:38:11.149Z,3.90
2019-05-11T16:40:40.998Z,3.55
2019-05-11T16:43:10.937Z,3.72
2019-05-11T16:45:40.838Z,4.20
2019-05-11T16:48:10.386Z,3.50
2019-05-11T16:50:40.314Z,4.47
2019-05-11T16:53:10.233Z,3.57
2019-05-11T16:55:40.081Z,3.40
2019-05-11T16:58:10.809Z,3.25
2019-05-11T17:00:42.370Z,3.72
2019-05-11T17:03:12.291Z,3.50
2019-05-11T17:05:41.853Z,3.58
2019-05-11T17:08:11.725Z,3.55
2019-05-11T17:10:42.992Z,3.67
2019-05-11T17:13:12.769Z,3.98
2019-05-11T17:15:42.319Z,4.03
2019-05-11T17:18:12.155Z,3.55
2019-05-11T17:20:41.730Z,3.90
2019-05-11T17:23:11.629Z,4.40
2019-05-11T17:25:41.541Z,4.33
2019-05-11T17:28:11.117Z,4.12
2019-05-11T17:30:40.941Z,4.15
2019-05-11T17:33:10.530Z,5.00
2019-05-11T17:35:40.477Z,4.15
2019-05-11T17:38:10.375Z,5.10
2019-05-11T17:40:40.312Z,5.12
2019-05-11T17:43:10.206Z,5.07
2019-05-11T17:45:40.148Z,4.20
2019-05-11T17:48:10.100Z,4.80
2019-05-11T17:50:39.973Z,4.60
2019-05-11T17:53:09.865Z,4.20
2019-05-11T17:55:39.789Z,3.83
2019-05-11T17:58:09.685Z,3.20
2019-05-11T18:00:39.603Z,4.00
2019-05-11T18:03:11.343Z,3.55
2019-05-11T18:05:41.275Z,3.60
2019-05-11T18:08:11.037Z,3.17
2019-05-11T18:10:40.919Z,3.55
2019-05-11T18:13:10.801Z,3.20
2019-05-11T18:15:40.752Z,3.17
2019-05-11T18:18:10.648Z,3.73
2019-05-11T18:20:40.561Z,3.53
2019-05-11T18:23:10.474Z,4.05
2019-05-11T18:25:40.414Z,3.80
2019-05-11T18:28:10.363Z,3.92
2019-05-11T18:30:40.250Z,5.37
2019-05-11T18:33:10.160Z,5.55
2019-05-11T18:35:40.053Z,5.13
2019-05-11T18:38:09.960Z,4.47
2019-05-11T18:40:39.873Z,4.20
2019-05-11T18:43:09.771Z,4.33
2019-05-11T18:45:39.309Z,4.37
2019-05-11T18:48:09.206Z,4.45
2019-05-11T18:50:38.774Z,4.92
2019-05-11T18:53:09.400Z,5.70
2019-05-11T18:55:39.367Z,5.17
2019-05-11T18:58:09.285Z,3.80
2019-05-11T19:00:38.804Z,4.90
2019-05-11T19:03:08.946Z,5.55
2019-05-11T19:05:38.776Z,5.37
2019-05-11T19:08:08.597Z,4.80
2019-05-11T19:10:38.538Z,4.65
2019-05-11T19:13:08.357Z,6.03
2019-05-11T19:15:38.805Z,4.65
2019-05-11T19:18:08.616Z,5.42
2019-05-11T19:20:45.646Z,6.05
2019-05-11T19:23:10.067Z,5.83
2019-05-11T19:25:39.605Z,7.12
2019-05-11T19:28:09.573Z,5.92
2019-05-11T19:30:39.486Z,5.78
2019-05-11T19:33:11.248Z,6.40
2019-05-11T19:35:41.053Z,7.22
2019-05-11T19:38:10.904Z,6.10
2019-05-11T19:40:40.793Z,4.65
2019-05-11T19:43:11.577Z,5.20
2019-05-11T19:45:42.417Z,5.35
2019-05-11T19:50:41.699Z,4.90
2019-05-11T19:53:11.650Z,4.00
2019-05-11T19:55:41.554Z,4.57
2019-05-11T19:58:11.498Z,4.58
2019-05-11T20:00:41.344Z,4.40
2019-05-11T20:03:11.384Z,4.45
2019-05-11T20:05:41.193Z,4.20
2019-05-11T20:08:11.098Z,4.65
2019-05-11T20:10:41.026Z,4.57
2019-05-11T20:13:10.927Z,4.65
2019-05-11T20:15:40.814Z,4.50
2019-05-11T20:18:10.764Z,4.67
2019-05-11T20:20:40.633Z,4.22
2019-05-11T20:23:10.566Z,4.60
2019-05-11T20:25:40.461Z,4.45
2019-05-11T20:28:10.392Z,5.25
2019-05-11T20:30:40.440Z,4.83
2019-05-11T20:33:10.237Z,4.80
2019-05-11T20:35:40.119Z,4.25
2019-05-11T20:38:09.661Z,4.50
2019-05-11T20:40:39.541Z,4.15
2019-05-11T20:43:09.478Z,4.65
2019-05-11T20:45:39.380Z,4.87
2019-05-11T20:48:09.285Z,4.50
2019-05-11T20:50:38.817Z,4.08
2019-05-11T20:53:08.737Z,4.40
2019-05-11T20:55:38.640Z,5.17
2019-05-11T20:58:08.636Z,5.85
2019-05-11T21:00:38.501Z,6.25
2019-05-11T21:03:08.372Z,5.42
2019-05-11T21:05:37.985Z,5.20
2019-05-11T21:08:08.475Z,4.58
2019-05-11T21:10:38.739Z,5.72
2019-05-11T21:13:08.752Z,5.03
2019-05-11T21:15:38.765Z,5.70
2019-05-11T21:18:09.521Z,5.33
2019-05-11T21:20:39.057Z,5.05
2019-05-11T21:23:08.917Z,4.90
2019-05-11T21:25:38.459Z,6.00
2019-05-11T21:28:08.675Z,5.00
2019-05-11T21:30:58.517Z,5.58
2019-05-11T21:33:28.399Z,4.83
2019-05-11T21:36:00.794Z,5.28
2019-05-11T21:38:31.825Z,5.05
2019-05-11T21:41:02.213Z,5.20
2019-05-11T21:43:32.100Z,5.10
2019-05-11T21:46:02.065Z,5.65
2019-05-11T21:48:31.928Z,4.37
2019-05-11T21:51:01.862Z,6.05
2019-05-11T21:53:31.747Z,5.50
2019-05-11T21:56:01.678Z,5.40
2019-05-11T21:58:31.620Z,5.65
2019-05-11T22:01:01.786Z,5.87
2019-05-11T22:03:31.404Z,6.33
2019-05-11T22:06:01.352Z,6.60
2019-05-11T22:08:31.305Z,7.03
2019-05-11T22:11:01.208Z,5.93
2019-05-11T22:13:31.062Z,5.60
2019-05-11T22:16:01.006Z,6.25
2019-05-11T22:18:31.545Z,5.47
2019-05-11T22:21:01.286Z,6.00
2019-05-11T22:23:31.137Z,6.37
2019-05-11T22:26:01.058Z,5.75
2019-05-11T22:28:30.987Z,5.78
2019-05-11T22:31:00.868Z,6.13
2019-05-11T22:33:30.802Z,6.12
2019-05-11T22:36:01.547Z,6.17
2019-05-11T22:38:31.461Z,6.00
2019-05-11T22:41:01.351Z,6.55
2019-05-11T22:43:30.943Z,6.08
2019-05-11T22:46:00.798Z,6.87
2019-05-11T22:48:30.685Z,6.20
2019-05-11T22:51:00.209Z,5.95
2019-05-11T22:53:43.937Z,6.53
2019-05-11T22:56:01.658Z,6.50
2019-05-11T22:58:31.192Z,7.05
2019-05-11T23:01:01.096Z,6.53
2019-05-11T23:03:30.997Z,6.73
2019-05-11T23:06:00.521Z,6.47
2019-05-11T23:08:30.421Z,6.65
2019-05-11T23:10:59.942Z,6.37
2019-05-11T23:13:29.846Z,6.90
2019-05-11T23:15:59.369Z,6.28
2019-05-11T23:18:29.289Z,6.90
2019-05-11T23:20:59.152Z,7.27
2019-05-11T23:23:29.163Z,7.35
2019-05-11T23:25:59.090Z,6.85
2019-05-11T23:28:29.043Z,6.72
2019-05-11T23:30:58.914Z,7.57
2019-05-11T23:33:28.445Z,7.33
2019-05-11T23:35:58.872Z,7.30
2019-05-11T23:38:28.670Z,6.35
2019-05-11T23:40:58.891Z,7.40
2019-05-11T23:43:30.096Z,7.55
2019-05-11T23:46:00.042Z,6.95
2019-05-11T23:48:29.983Z,6.90
2019-05-11T23:50:59.877Z,7.10
2019-05-11T23:53:30.220Z,6.92
2019-05-11T23:56:00.105Z,7.20
2019-05-11T23:58:30.017Z,7.15
